Time;durP1;ratioP1;P1;durP2;ratioP2;P2;SDS_P1;SDS_P2;PMS_P1;PMS_P2;Temp;Humidity;BMP_temperature;BMP_pressure;BME280_temperature;BME280_humidity;BME280_pressure;Samples;Min_cycle;Max_cycle;Signal;HPM_P1;HPM_P2
2021/07/19 00:01:44;;;;;;;;;;;21.90;90.00;;;;;;4313349;33;42832;-82
2021/07/19 00:04:20;;;;;;;;;;;21.90;90.10;;;;;;4313554;33;44303;-82
2021/07/19 00:06:55;;;;;;;;;;;21.90;90.10;;;;;;4313465;33;43858;-82
2021/07/19 00:09:28;;;;;;;;;;;21.90;90.10;;;;;;4313430;33;43542;-82
2021/07/19 00:12:01;;;;;;;;;;;21.90;90.00;;;;;;4313062;33;44289;-81
2021/07/19 00:14:34;;;;;;;;;;;21.90;90.10;;;;;;4313444;33;42465;-81
2021/07/19 00:17:09;;;;;;;;;;;21.90;90.10;;;;;;4312883;33;43782;-82
2021/07/19 00:19:42;;;;;;;;;;;21.80;90.00;;;;;;4302400;33;44690;-82
2021/07/19 00:22:09;;;;;;;;;;;21.90;90.10;;;;;;4302570;33;44986;-81
2021/07/19 00:24:36;;;;;;;;;;;21.80;90.00;;;;;;4313113;33;43566;-82
2021/07/19 00:27:11;;;;;;;;;;;21.80;90.10;;;;;;4302197;33;46024;-81
2021/07/19 00:29:44;;;;;;;;;;;21.80;90.00;;;;;;4313280;33;43473;-82
2021/07/19 00:32:17;;;;;;;;;;;21.80;90.00;;;;;;4301757;33;43961;-82
2021/07/19 00:34:49;;;;;;;;;;;21.80;90.10;;;;;;4313412;33;44220;-82
2021/07/19 00:37:22;;;;;;;;;;;21.80;90.10;;;;;;4302371;33;44269;-81
2021/07/19 00:39:57;;;;;;;;;;;21.80;90.10;;;;;;4313263;33;44139;-82
2021/07/19 00:42:33;;;;;;;;;;;21.70;90.10;;;;;;4313116;33;44594;-82
2021/07/19 00:45:07;;;;;;;;;;;21.70;90.00;;;;;;4302112;33;43202;-82
2021/07/19 00:47:41;;;;;;;;;;;21.70;90.00;;;;;;4312647;33;42781;-81
2021/07/19 00:50:08;;;;;;;;;;;21.70;90.10;;;;;;4313152;33;45277;-82
2021/07/19 00:52:41;;;;;;;;;;;21.70;90.10;;;;;;4312621;33;42584;-81
2021/07/19 00:55:19;;;;;;;;;;;21.70;90.00;;;;;;4302083;33;44097;-82
2021/07/19 00:57:55;;;;;;;;;;;21.60;90.00;;;;;;4312489;33;43945;-82
2021/07/19 01:00:25;;;;;;;;;;;21.60;90.00;;;;;;4313733;33;20042;-81
2021/07/19 01:03:06;;;;;;;;;;;21.60;90.00;;;;;;4301374;33;43820;-82
2021/07/19 01:05:42;;;;;;;;;;;21.60;90.00;;;;;;4312850;33;44227;-82
2021/07/19 01:08:19;;;;;;;;;;;21.60;90.00;;;;;;4312808;33;44347;-82
2021/07/19 01:10:52;;;;;;;;;;;21.50;89.90;;;;;;4301887;33;44213;-82
2021/07/19 01:13:19;;;;;;;;;;;21.50;90.00;;;;;;4301887;33;43917;-82
2021/07/19 01:15:54;;;;;;;;;;;21.50;90.00;;;;;;4301657;33;44123;-82
2021/07/19 01:18:27;;;;;;;;;;;21.50;90.00;;;;;;4312357;33;42814;-81
2021/07/19 01:21:20;;;;;;;;;;;21.50;90.00;;;;;;4312395;33;44129;-81
2021/07/19 01:24:01;;;;;;;;;;;21.50;90.00;;;;;;4301455;33;42656;-80
2021/07/19 01:26:47;;;;;;;;;;;21.50;90.00;;;;;;4301667;33;44599;-81
2021/07/19 01:29:21;;;;;;;;;;;21.40;90.00;;;;;;4301382;33;43196;-82
2021/07/19 01:31:54;;;;;;;;;;;21.40;90.00;;;;;;4301584;33;44137;-81
2021/07/19 01:34:30;;;;;;;;;;;21.40;90.10;;;;;;4312515;33;45113;-81
2021/07/19 01:36:59;;;;;;;;;;;21.40;90.10;;;;;;4312622;33;43498;-82
2021/07/19 01:39:37;;;;;;;;;;;21.40;90.10;;;;;;4312161;33;45210;-81
2021/07/19 01:42:10;;;;;;;;;;;21.40;90.10;;;;;;4312557;33;43800;-81
2021/07/19 01:44:43;;;;;;;;;;;21.40;90.10;;;;;;4312523;33;44209;-81
2021/07/19 01:47:18;;;;;;;;;;;21.40;90.10;;;;;;4312109;33;43718;-81
2021/07/19 01:49:52;;;;;;;;;;;21.40;90.10;;;;;;4312444;33;43000;-81
2021/07/19 01:52:25;;;;;;;;;;;21.30;90.10;;;;;;4312498;33;43901;-81
2021/07/19 01:54:58;;;;;;;;;;;21.30;90.10;;;;;;4301417;33;44945;-81
2021/07/19 01:57:33;;;;;;;;;;;21.30;90.10;;;;;;4312194;33;42774;-81
2021/07/19 02:00:06;;;;;;;;;;;21.30;90.10;;;;;;4312341;33;44618;-83
2021/07/19 02:02:39;;;;;;;;;;;21.30;90.10;;;;;;4312181;33;44131;-82
2021/07/19 02:05:15;;;;;;;;;;;21.20;90.10;;;;;;4312354;33;45545;-81
2021/07/19 02:07:49;;;;;;;;;;;21.20;90.00;;;;;;4311854;33;43747;-81
2021/07/19 02:10:21;;;;;;;;;;;21.20;90.10;;;;;;4300834;33;43324;-81
2021/07/19 02:12:56;;;;;;;;;;;21.20;90.10;;;;;;4311757;33;43458;-81
2021/07/19 02:15:29;;;;;;;;;;;21.20;90.10;;;;;;4312163;33;45543;-81
2021/07/19 02:18:03;;;;;;;;;;;21.20;90.10;;;;;;4312280;33;44279;-81
2021/07/19 02:20:36;;;;;;;;;;;21.20;90.10;;;;;;4312185;33;46162;-81
2021/07/19 02:23:09;;;;;;;;;;;21.20;90.10;;;;;;4301060;33;42700;-81
2021/07/19 02:25:38;;;;;;;;;;;21.10;90.10;;;;;;4311812;33;42942;-82
2021/07/19 02:28:15;;;;;;;;;;;21.10;90.10;;;;;;4311682;33;43055;-81
2021/07/19 02:30:47;;;;;;;;;;;21.10;90.10;;;;;;4301151;33;43090;-81
2021/07/19 02:33:20;;;;;;;;;;;21.10;90.10;;;;;;4302402;33;20003;-80
2021/07/19 02:35:56;;;;;;;;;;;21.10;90.10;;;;;;4300862;33;44330;-81
2021/07/19 02:38:27;;;;;;;;;;;21.10;90.10;;;;;;4312021;33;45210;-80
2021/07/19 02:41:00;;;;;;;;;;;21.00;90.10;;;;;;4301674;33;44275;-81
2021/07/19 02:43:35;;;;;;;;;;;21.10;90.10;;;;;;4303403;33;45295;-80
2021/07/19 02:46:08;;;;;;;;;;;21.00;90.10;;;;;;4303580;33;43705;-80
2021/07/19 02:48:42;;;;;;;;;;;21.00;90.10;;;;;;4314905;33;43438;-81
2021/07/19 02:51:10;;;;;;;;;;;21.00;90.10;;;;;;4304134;33;43449;-80
2021/07/19 02:53:43;;;;;;;;;;;21.00;90.10;;;;;;4314417;33;45061;-80
2021/07/19 02:56:16;;;;;;;;;;;21.00;90.10;;;;;;4314615;33;44300;-81
2021/07/19 02:58:49;;;;;;;;;;;21.00;90.10;;;;;;4314571;33;45852;-80
2021/07/19 03:01:22;;;;;;;;;;;21.00;90.10;;;;;;4314074;33;42241;-80
2021/07/19 03:03:55;;;;;;;;;;;21.00;90.10;;;;;;4315221;33;20424;-81
2021/07/19 03:06:36;;;;;;;;;;;20.90;90.10;;;;;;4314468;33;44295;-81
2021/07/19 03:09:07;;;;;;;;;;;20.90;90.10;;;;;;4314278;33;41923;-81
2021/07/19 03:11:45;;;;;;;;;;;20.90;90.10;;;;;;4314540;33;42783;-80
2021/07/19 03:14:22;;;;;;;;;;;20.90;90.10;;;;;;4314091;33;44387;-80
2021/07/19 03:16:57;;;;;;;;;;;20.90;90.10;;;;;;4314323;33;44247;-80
2021/07/19 03:19:30;;;;;;;;;;;20.80;90.10;;;;;;4313956;33;42344;-80
2021/07/19 03:22:04;;;;;;;;;;;20.90;90.10;;;;;;4314413;33;44112;-80
2021/07/19 03:24:40;;;;;;;;;;;20.80;90.10;;;;;;4314148;33;45993;-80
2021/07/19 03:27:13;;;;;;;;;;;20.80;90.10;;;;;;4302762;33;43434;-80
2021/07/19 03:29:52;;;;;;;;;;;20.80;90.10;;;;;;4313512;33;43104;-81
2021/07/19 03:32:21;;;;;;;;;;;20.80;90.10;;;;;;4314474;33;44101;-81
2021/07/19 03:34:52;;;;;;;;;;;20.80;90.10;;;;;;4303300;33;43208;-80
2021/07/19 03:37:25;;;;;;;;;;;20.80;90.10;;;;;;4313964;33;43878;-80
2021/07/19 03:39:57;;;;;;;;;;;20.80;90.20;;;;;;4302644;33;42604;-80
2021/07/19 03:42:30;;;;;;;;;;;20.70;90.10;;;;;;4313906;33;45055;-80
2021/07/19 03:45:01;;;;;;;;;;;20.70;90.10;;;;;;4313958;33;44216;-80
2021/07/19 03:47:34;;;;;;;;;;;20.70;90.10;;;;;;4302860;33;43241;-80
2021/07/19 03:50:05;;;;;;;;;;;20.70;90.20;;;;;;4313333;33;44294;-80
2021/07/19 03:52:42;;;;;;;;;;;20.70;90.10;;;;;;4302130;33;43112;-80
2021/07/19 03:55:10;;;;;;;;;;;20.70;90.10;;;;;;4313949;33;44996;-80
2021/07/19 03:57:41;;;;;;;;;;;20.70;90.10;;;;;;4302598;33;43955;-80
2021/07/19 04:00:16;;;;;;;;;;;20.70;90.10;;;;;;4302598;33;43494;-80
2021/07/19 04:02:52;;;;;;;;;;;20.60;90.10;;;;;;4302429;33;43267;-80
2021/07/19 04:05:28;;;;;;;;;;;20.60;90.10;;;;;;4314723;33;20064;-80
2021/07/19 04:08:04;;;;;;;;;;;20.60;90.10;;;;;;4302233;33;44914;-80
2021/07/19 04:10:37;;;;;;;;;;;20.60;90.10;;;;;;4313842;33;45169;-80
2021/07/19 04:13:12;;;;;;;;;;;20.50;90.10;;;;;;4302704;33;43964;-80
2021/07/19 04:15:48;;;;;;;;;;;20.60;90.20;;;;;;4302413;33;45436;-80
2021/07/19 04:18:22;;;;;;;;;;;20.50;90.10;;;;;;4313723;33;44274;-80
2021/07/19 04:20:50;;;;;;;;;;;20.50;90.20;;;;;;4313752;33;45064;-81
2021/07/19 04:23:23;;;;;;;;;;;20.50;90.20;;;;;;4313471;33;42849;-80
2021/07/19 04:25:53;;;;;;;;;;;20.50;90.20;;;;;;4313252;33;44215;-80
2021/07/19 04:28:26;;;;;;;;;;;20.50;90.30;;;;;;4301905;33;43099;-80
2021/07/19 04:30:57;;;;;;;;;;;20.50;90.30;;;;;;4301968;33;43756;-80
2021/07/19 04:33:32;;;;;;;;;;;20.40;90.30;;;;;;4313239;33;43555;-80
2021/07/19 04:36:04;;;;;;;;;;;20.50;90.40;;;;;;4303026;33;20006;-80
2021/07/19 04:38:37;;;;;;;;;;;20.40;90.30;;;;;;4302429;33;45462;-80
2021/07/19 04:41:10;;;;;;;;;;;20.40;90.30;;;;;;4302378;33;43082;-81
2021/07/19 04:43:37;;;;;;;;;;;20.40;90.40;;;;;;4302459;33;46021;-80
2021/07/19 04:46:10;;;;;;;;;;;20.40;90.40;;;;;;4312879;33;43079;-80
2021/07/19 04:48:42;;;;;;;;;;;20.40;90.40;;;;;;4301651;33;44282;-79
2021/07/19 04:51:15;;;;;;;;;;;20.40;90.40;;;;;;4312988;33;43355;-80
2021/07/19 04:53:49;;;;;;;;;;;20.40;90.50;;;;;;4301995;33;45400;-79
2021/07/19 04:56:22;;;;;;;;;;;20.40;90.50;;;;;;4302119;33;43311;-79
2021/07/19 04:58:55;;;;;;;;;;;20.40;90.50;;;;;;4312919;33;43892;-79
2021/07/19 05:01:28;;;;;;;;;;;20.30;90.50;;;;;;4312824;33;43343;-79
2021/07/19 05:04:05;;;;;;;;;;;20.30;90.60;;;;;;4311975;33;44237;-80
2021/07/19 05:06:33;;;;;;;;;;;20.30;90.60;;;;;;4302195;33;43193;-80
2021/07/19 05:09:08;;;;;;;;;;;20.30;90.60;;;;;;4301845;33;45669;-79
2021/07/19 05:11:42;;;;;;;;;;;20.30;90.60;;;;;;4301825;33;43977;-79
2021/07/19 05:14:15;;;;;;;;;;;20.30;90.60;;;;;;4312662;33;45367;-80
2021/07/19 05:16:48;;;;;;;;;;;20.30;90.70;;;;;;4301826;33;43600;-79
2021/07/19 05:19:21;;;;;;;;;;;20.30;90.70;;;;;;4301532;33;43349;-79
2021/07/19 05:21:54;;;;;;;;;;;20.30;90.70;;;;;;4301826;33;44234;-79
2021/07/19 05:24:30;;;;;;;;;;;20.30;90.70;;;;;;4312635;33;44229;-79
2021/07/19 05:27:06;;;;;;;;;;;20.20;90.70;;;;;;4312791;33;43905;-80
2021/07/19 05:29:42;;;;;;;;;;;20.30;90.80;;;;;;4312663;33;43836;-79
2021/07/19 05:32:09;;;;;;;;;;;20.20;90.80;;;;;;4312334;33;43385;-80
2021/07/19 05:34:42;;;;;;;;;;;20.20;90.80;;;;;;4301396;33;44243;-79
2021/07/19 05:37:15;;;;;;;;;;;20.20;90.90;;;;;;4302173;33;20325;-79
2021/07/19 05:39:45;;;;;;;;;;;20.20;90.90;;;;;;4301120;33;43272;-80
2021/07/19 05:42:17;;;;;;;;;;;20.20;90.90;;;;;;4301190;33;43608;-79
2021/07/19 05:44:52;;;;;;;;;;;20.20;91.00;;;;;;4301552;33;45781;-79
2021/07/19 05:47:24;;;;;;;;;;;20.20;91.00;;;;;;4301411;33;44976;-79
2021/07/19 05:50:00;;;;;;;;;;;20.20;91.00;;;;;;4301343;33;44740;-79
2021/07/19 05:52:32;;;;;;;;;;;20.20;91.10;;;;;;4312044;33;43518;-81
2021/07/19 05:55:00;;;;;;;;;;;20.20;91.10;;;;;;4301637;33;44793;-81
2021/07/19 05:57:32;;;;;;;;;;;20.20;91.10;;;;;;4301216;33;44136;-79
2021/07/19 06:00:08;;;;;;;;;;;20.20;91.20;;;;;;4301366;33;43110;-79
2021/07/19 06:02:40;;;;;;;;;;;20.20;91.20;;;;;;4312109;33;43219;-80
2021/07/19 06:05:13;;;;;;;;;;;20.20;91.30;;;;;;4301422;33;45885;-79
2021/07/19 06:07:46;;;;;;;;;;;20.20;91.30;;;;;;4302968;33;20385;-80
2021/07/19 06:10:19;;;;;;;;;;;20.20;91.30;;;;;;4312309;33;43121;-80
2021/07/19 06:12:54;;;;;;;;;;;20.20;91.30;;;;;;4311959;33;44772;-80
2021/07/19 06:15:30;;;;;;;;;;;20.20;91.40;;;;;;4301420;33;43088;-80
2021/07/19 06:17:57;;;;;;;;;;;20.20;91.30;;;;;;4304605;33;43485;-80
2021/07/19 06:20:32;;;;;;;;;;;20.20;91.40;;;;;;4314627;33;44336;-80
2021/07/19 06:23:04;;;;;;;;;;;20.20;91.40;;;;;;4304178;33;46231;-80
2021/07/19 06:25:41;;;;;;;;;;;20.20;91.40;;;;;;4304105;33;43412;-80
2021/07/19 06:28:19;;;;;;;;;;;20.20;91.40;;;;;;4304184;33;43830;-82
2021/07/19 06:30:54;;;;;;;;;;;20.20;91.40;;;;;;4304069;33;44302;-82
2021/07/19 06:33:26;;;;;;;;;;;20.20;91.50;;;;;;4314822;33;42642;-82
2021/07/19 06:36:02;;;;;;;;;;;20.20;91.50;;;;;;4303410;33;43278;-82
2021/07/19 06:38:34;;;;;;;;;;;20.20;91.50;;;;;;4304664;33;20010;-82
2021/07/19 06:41:12;;;;;;;;;;;20.20;91.50;;;;;;4314613;33;44101;-82
2021/07/19 06:43:39;;;;;;;;;;;20.20;91.50;;;;;;4304023;33;44020;-82
2021/07/19 06:46:11;;;;;;;;;;;20.20;91.50;;;;;;4303816;33;43229;-82
2021/07/19 06:48:44;;;;;;;;;;;20.30;91.50;;;;;;4314849;33;42118;-82
2021/07/19 06:51:17;;;;;;;;;;;20.30;91.50;;;;;;4314287;33;43629;-82
2021/07/19 06:53:52;;;;;;;;;;;20.30;91.50;;;;;;4314221;33;42329;-82
2021/07/19 06:56:25;;;;;;;;;;;20.30;91.50;;;;;;4303605;33;45988;-81
2021/07/19 06:58:57;;;;;;;;;;;20.30;91.40;;;;;;4314553;33;45850;-82
2021/07/19 07:01:30;;;;;;;;;;;20.30;91.40;;;;;;4303669;33;44978;-82
2021/07/19 07:04:03;;;;;;;;;;;20.30;91.40;;;;;;4303016;33;44069;-82
2021/07/19 07:06:30;;;;;;;;;;;20.30;91.40;;;;;;4314490;33;44906;-82
2021/07/19 07:09:03;;;;;;;;;;;20.30;91.40;;;;;;4303562;33;43929;-81
2021/07/19 07:11:36;;;;;;;;;;;20.30;91.40;;;;;;4303443;33;46014;-82
2021/07/19 07:14:18;;;;;;;;;;;20.30;91.50;;;;;;4314197;33;42838;-81
2021/07/19 07:16:56;;;;;;;;;;;20.40;91.50;;;;;;4303189;33;45004;-81
2021/07/19 07:19:37;;;;;;;;;;;20.30;91.50;;;;;;4303366;33;43146;-81
2021/07/19 07:22:04;;;;;;;;;;;20.40;91.50;;;;;;4313858;33;43944;-81
2021/07/19 07:24:32;;;;;;;;;;;20.30;91.50;;;;;;4314120;33;46004;-82
2021/07/19 07:26:59;;;;;;;;;;;20.40;91.60;;;;;;4312988;33;43374;-81
2021/07/19 07:29:26;;;;;;;;;;;20.40;91.50;;;;;;4314113;33;42641;-81
2021/07/19 07:31:53;;;;;;;;;;;20.40;91.60;;;;;;4303074;33;44192;-82
2021/07/19 07:34:21;;;;;;;;;;;20.40;91.50;;;;;;4314097;33;43478;-82
2021/07/19 07:36:56;;;;;;;;;;;20.40;91.50;;;;;;4313246;33;44097;-81
2021/07/19 07:39:23;;;;;;;;;;;20.40;91.50;;;;;;4302804;33;43869;-81
2021/07/19 07:41:50;;;;;;;;;;;20.40;91.50;;;;;;4313967;33;45852;-81
2021/07/19 07:44:20;;;;;;;;;;;20.40;91.50;;;;;;4313262;33;43905;-81
2021/07/19 07:46:50;;;;;;;;;;;20.40;91.50;;;;;;4313829;33;43517;-82
2021/07/19 07:49:21;;;;;;;;;;;20.40;91.50;;;;;;4313786;33;43652;-81
2021/07/19 07:51:51;;;;;;;;;;;20.40;91.50;;;;;;4313913;33;46020;-82
2021/07/19 07:54:27;;;;;;;;;;;20.50;91.50;;;;;;4302783;33;44378;-82
2021/07/19 07:56:57;;;;;;;;;;;20.40;91.50;;;;;;4313619;33;43589;-82
2021/07/19 07:59:29;;;;;;;;;;;20.50;91.50;;;;;;4302374;33;43074;-83
2021/07/19 08:02:01;;;;;;;;;;;20.50;91.50;;;;;;4313138;33;44636;-84
2021/07/19 08:04:33;;;;;;;;;;;20.50;91.40;;;;;;4313237;33;42910;-82
2021/07/19 08:07:00;;;;;;;;;;;20.50;91.40;;;;;;4313613;33;45778;-82
2021/07/19 08:09:31;;;;;;;;;;;20.50;91.40;;;;;;4314464;33;20411;-81
2021/07/19 08:11:58;;;;;;;;;;;20.50;91.40;;;;;;4313484;33;43936;-82
2021/07/19 08:14:27;;;;;;;;;;;20.50;91.40;;;;;;4312995;33;44134;-82
2021/07/19 08:16:54;;;;;;;;;;;20.50;91.40;;;;;;4313477;33;44722;-82
2021/07/19 08:19:28;;;;;;;;;;;20.50;91.40;;;;;;4312889;33;44860;-82
2021/07/19 08:21:58;;;;;;;;;;;20.50;91.40;;;;;;4313488;33;45030;-82
2021/07/19 08:24:37;;;;;;;;;;;20.50;91.40;;;;;;4312990;33;45125;-82
2021/07/19 08:27:04;;;;;;;;;;;20.50;91.40;;;;;;4313746;33;43980;-83
2021/07/19 08:29:31;;;;;;;;;;;20.50;91.40;;;;;;4312899;33;42791;-81
2021/07/19 08:31:58;;;;;;;;;;;20.50;91.40;;;;;;4312785;33;44423;-81
2021/07/19 08:34:32;;;;;;;;;;;20.50;91.40;;;;;;4302123;33;45497;-81
2021/07/19 08:37:02;;;;;;;;;;;20.50;91.40;;;;;;4302165;33;43527;-81
2021/07/19 08:39:35;;;;;;;;;;;20.50;91.40;;;;;;4313691;33;20462;-81
2021/07/19 08:42:17;;;;;;;;;;;20.60;91.40;;;;;;4312908;33;44647;-81
2021/07/19 08:44:47;;;;;;;;;;;20.50;91.40;;;;;;4313072;33;43239;-81
2021/07/19 08:47:19;;;;;;;;;;;20.50;91.40;;;;;;4312589;33;42305;-82
2021/07/19 08:49:46;;;;;;;;;;;20.50;91.40;;;;;;4313206;33;44225;-81
2021/07/19 08:52:20;;;;;;;;;;;20.50;91.40;;;;;;4301629;33;43783;-81
2021/07/19 08:54:48;;;;;;;;;;;20.60;91.40;;;;;;4301613;33;43789;-81
2021/07/19 08:57:16;;;;;;;;;;;20.50;91.40;;;;;;4312559;33;43841;-81
2021/07/19 08:59:48;;;;;;;;;;;20.60;91.40;;;;;;4301615;33;43843;-81
2021/07/19 09:02:15;;;;;;;;;;;20.60;91.40;;;;;;4301339;33;42680;-81
2021/07/19 09:04:48;;;;;;;;;;;20.60;91.40;;;;;;4313172;33;44123;-81
2021/07/19 09:07:19;;;;;;;;;;;20.60;91.40;;;;;;4301643;33;42910;-81
2021/07/19 09:09:51;;;;;;;;;;;20.60;91.40;;;;;;4302799;33;20074;-81
2021/07/19 09:12:48;;;;;;;;;;;20.60;91.30;;;;;;4312713;33;44067;-82
2021/07/19 09:15:27;;;;;;;;;;;20.60;91.40;;;;;;4292475;33;43324;-81
2021/07/19 09:17:56;;;;;;;;;;;20.60;91.40;;;;;;4312896;33;44235;-82
2021/07/19 09:20:32;;;;;;;;;;;20.60;91.30;;;;;;4312834;33;43870;-81
2021/07/19 09:23:01;;;;;;;;;;;20.60;91.30;;;;;;4312552;33;44461;-81
2021/07/19 09:25:29;;;;;;;;;;;20.60;91.30;;;;;;4301128;33;44925;-81
2021/07/19 09:28:04;;;;;;;;;;;20.60;91.30;;;;;;4312575;33;43967;-81
2021/07/19 09:30:34;;;;;;;;;;;20.60;91.30;;;;;;4301644;33;42767;-81
2021/07/19 09:33:06;;;;;;;;;;;20.60;91.30;;;;;;4312777;33;43261;-81
2021/07/19 09:35:37;;;;;;;;;;;20.60;91.30;;;;;;4301490;33;44403;-82
2021/07/19 09:38:08;;;;;;;;;;;20.60;91.30;;;;;;4301396;33;43668;-82
2021/07/19 09:40:36;;;;;;;;;;;20.60;91.30;;;;;;4302262;33;20012;-81
2021/07/19 09:43:20;;;;;;;;;;;20.60;91.30;;;;;;4312356;33;43531;-82
2021/07/19 09:45:56;;;;;;;;;;;20.60;91.30;;;;;;4301619;33;43198;-82
2021/07/19 09:48:24;;;;;;;;;;;20.70;91.30;;;;;;4312325;33;43816;-82
2021/07/19 09:50:56;;;;;;;;;;;20.70;91.30;;;;;;4311982;33;44330;-82
2021/07/19 09:53:35;;;;;;;;;;;20.70;91.30;;;;;;4301242;33;43550;-82
2021/07/19 09:56:13;;;;;;;;;;;20.70;91.60;;;;;;4312342;33;46009;-82
2021/07/19 09:58:47;;;;;;;;;;;20.70;91.30;;;;;;4312153;33;43847;-82
2021/07/19 10:01:28;;;;;;;;;;;20.70;91.20;;;;;;4301406;33;43825;-81
2021/07/19 10:04:14;;;;;;;;;;;20.70;91.20;;;;;;4311988;33;43326;-81
2021/07/19 10:06:42;;;;;;;;;;;20.70;91.20;;;;;;4312263;33;44290;-81
2021/07/19 10:09:13;;;;;;;;;;;20.70;91.20;;;;;;4300821;33;44985;-82
2021/07/19 10:11:47;;;;;;;;;;;20.70;91.20;;;;;;4300981;33;43853;-81
2021/07/19 10:14:23;;;;;;;;;;;20.70;91.20;;;;;;4301411;33;44710;-82
2021/07/19 10:16:51;;;;;;;;;;;20.70;91.20;;;;;;4312321;33;43353;-82
2021/07/19 10:19:19;;;;;;;;;;;20.80;91.20;;;;;;4311756;33;43908;-81
2021/07/19 10:21:49;;;;;;;;;;;20.70;91.20;;;;;;4311782;33;42749;-81
2021/07/19 10:24:16;;;;;;;;;;;20.70;91.20;;;;;;4300999;33;43470;-81
2021/07/19 10:26:45;;;;;;;;;;;20.80;91.20;;;;;;4312328;33;43903;-81
2021/07/19 10:29:14;;;;;;;;;;;20.80;91.20;;;;;;4311625;33;45070;-81
2021/07/19 10:31:43;;;;;;;;;;;20.80;91.20;;;;;;4312088;33;42687;-82
2021/07/19 10:34:14;;;;;;;;;;;20.80;91.20;;;;;;4312022;33;44256;-81
2021/07/19 10:36:47;;;;;;;;;;;20.80;91.20;;;;;;4301025;33;43114;-81
2021/07/19 10:39:29;;;;;;;;;;;20.80;91.20;;;;;;4300915;33;43781;-82
2021/07/19 10:41:58;;;;;;;;;;;20.80;91.10;;;;;;4312038;33;43444;-81
2021/07/19 10:44:36;;;;;;;;;;;20.80;91.10;;;;;;4311573;33;43054;-83
2021/07/19 10:47:16;;;;;;;;;;;20.80;91.10;;;;;;4311711;33;44194;-81
2021/07/19 10:50:05;;;;;;;;;;;20.80;91.10;;;;;;4300847;33;42641;-81
2021/07/19 10:52:39;;;;;;;;;;;20.80;91.10;;;;;;4311830;33;43021;-81
2021/07/19 10:55:23;;;;;;;;;;;20.90;91.10;;;;;;4311914;33;42958;-83
2021/07/19 10:57:59;;;;;;;;;;;20.90;91.10;;;;;;4301003;33;44533;-82
2021/07/19 11:00:28;;;;;;;;;;;20.90;91.10;;;;;;4301276;33;43619;-81
2021/07/19 11:03:27;;;;;;;;;;;20.90;91.10;;;;;;4301468;33;43088;-82
2021/07/19 11:05:59;;;;;;;;;;;20.90;91.10;;;;;;4314372;33;42592;-82
2021/07/19 11:08:29;;;;;;;;;;;20.90;91.10;;;;;;4314617;33;44253;-82
2021/07/19 11:10:57;;;;;;;;;;;20.90;91.10;;;;;;4314035;33;44091;-83
2021/07/19 11:13:37;;;;;;;;;;;21.00;91.10;;;;;;4303121;33;43449;-81
2021/07/19 11:16:16;;;;;;;;;;;21.00;91.10;;;;;;4314372;33;43343;-82
2021/07/19 11:18:56;;;;;;;;;;;21.00;91.00;;;;;;4303393;33;43969;-81
2021/07/19 11:21:24;;;;;;;;;;;21.00;91.00;;;;;;4314352;33;43481;-82
2021/07/19 11:23:55;;;;;;;;;;;21.00;91.00;;;;;;4303230;33;43474;-81
2021/07/19 11:26:23;;;;;;;;;;;21.00;91.00;;;;;;4313634;33;43824;-81
2021/07/19 11:28:55;;;;;;;;;;;21.00;91.00;;;;;;4313864;33;44683;-82
2021/07/19 11:31:29;;;;;;;;;;;21.00;91.00;;;;;;4303213;33;43654;-81
2021/07/19 11:33:59;;;;;;;;;;;21.10;91.00;;;;;;4303309;33;43674;-82
2021/07/19 11:36:29;;;;;;;;;;;21.10;91.00;;;;;;4313863;33;42402;-82
2021/07/19 11:38:57;;;;;;;;;;;21.10;91.00;;;;;;4314058;33;42401;-82
2021/07/19 11:41:25;;;;;;;;;;;21.10;91.00;;;;;;4313757;33;42740;-82
2021/07/19 11:43:54;;;;;;;;;;;21.10;91.00;;;;;;4314502;33;20416;-82
2021/07/19 11:46:37;;;;;;;;;;;21.10;91.00;;;;;;4313446;33;42890;-83
2021/07/19 11:49:06;;;;;;;;;;;21.10;90.90;;;;;;4314096;33;44147;-81
2021/07/19 11:51:39;;;;;;;;;;;21.20;90.90;;;;;;4302874;33;43478;-83
2021/07/19 11:54:09;;;;;;;;;;;21.20;90.90;;;;;;4313954;33;44090;-82
2021/07/19 11:56:39;;;;;;;;;;;21.20;90.90;;;;;;4302345;33;44260;-82
2021/07/19 11:59:14;;;;;;;;;;;21.20;90.90;;;;;;4302451;33;43769;-83
2021/07/19 12:01:43;;;;;;;;;;;21.20;90.90;;;;;;4302917;33;45651;-83
2021/07/19 12:04:11;;;;;;;;;;;21.20;90.80;;;;;;4313310;33;43917;-83
2021/07/19 12:06:54;;;;;;;;;;;21.30;90.90;;;;;;4313162;33;42922;-82
2021/07/19 12:09:24;;;;;;;;;;;21.30;90.90;;;;;;4302799;33;43482;-82
2021/07/19 12:11:57;;;;;;;;;;;21.30;91.20;;;;;;4313563;33;44110;-82
2021/07/19 12:14:35;;;;;;;;;;;21.30;90.90;;;;;;4303059;33;20042;-83
2021/07/19 12:17:16;;;;;;;;;;;21.30;90.80;;;;;;4313166;33;42914;-82
2021/07/19 12:19:50;;;;;;;;;;;21.40;90.80;;;;;;4313388;33;43494;-82
2021/07/19 12:22:17;;;;;;;;;;;21.40;90.80;;;;;;4313128;33;43029;-81
2021/07/19 12:24:46;;;;;;;;;;;21.40;90.80;;;;;;4302098;33;44282;-81
2021/07/19 12:27:22;;;;;;;;;;;21.40;90.70;;;;;;4313335;33;45022;-81
2021/07/19 12:29:57;;;;;;;;;;;21.40;90.70;;;;;;4313430;33;43478;-81
2021/07/19 12:32:35;;;;;;;;;;;21.40;90.70;;;;;;4312949;33;42746;-82
2021/07/19 12:35:13;;;;;;;;;;;21.40;90.70;;;;;;4302371;33;44336;-81
2021/07/19 12:37:54;;;;;;;;;;;21.40;90.70;;;;;;4301972;33;43464;-81
2021/07/19 12:40:22;;;;;;;;;;;21.50;90.70;;;;;;4302606;33;43558;-81
2021/07/19 12:42:51;;;;;;;;;;;21.50;90.60;;;;;;4301957;33;43494;-81
2021/07/19 12:45:21;;;;;;;;;;;21.50;90.60;;;;;;4302109;33;44128;-82
2021/07/19 12:47:51;;;;;;;;;;;21.50;90.60;;;;;;4313130;33;43485;-82
2021/07/19 12:50:19;;;;;;;;;;;21.60;90.70;;;;;;4301789;33;42668;-81
2021/07/19 12:52:46;;;;;;;;;;;21.60;90.60;;;;;;4301572;33;43516;-81
2021/07/19 12:55:24;;;;;;;;;;;21.60;90.70;;;;;;4312733;33;46102;-81
2021/07/19 12:57:52;;;;;;;;;;;21.60;90.60;;;;;;4302129;33;44047;-81
2021/07/19 13:00:23;;;;;;;;;;;21.60;90.50;;;;;;4312711;33;43189;-81
2021/07/19 13:03:17;;;;;;;;;;;21.60;90.50;;;;;;4301804;33;43996;-83
2021/07/19 13:05:48;;;;;;;;;;;21.70;90.60;;;;;;4310397;33;42316;-82
2021/07/19 13:08:27;;;;;;;;;;;21.70;90.50;;;;;;4302084;33;43212;-82
2021/07/19 13:11:04;;;;;;;;;;;21.70;90.60;;;;;;4312754;33;45870;-83
2021/07/19 13:13:31;;;;;;;;;;;21.70;90.60;;;;;;4312548;33;44317;-83
2021/07/19 13:16:01;;;;;;;;;;;21.70;90.50;;;;;;4301615;33;43359;-82
2021/07/19 13:18:32;;;;;;;;;;;21.70;90.60;;;;;;4301349;33;43684;-81
2021/07/19 13:21:06;;;;;;;;;;;21.80;90.60;;;;;;4301317;33;43001;-81
2021/07/19 13:23:42;;;;;;;;;;;21.80;90.50;;;;;;4301696;33;43212;-81
2021/07/19 13:26:11;;;;;;;;;;;21.80;90.60;;;;;;4301479;33;43911;-82
2021/07/19 13:28:44;;;;;;;;;;;21.80;90.60;;;;;;4312205;33;44041;-81
2021/07/19 13:31:24;;;;;;;;;;;21.90;90.60;;;;;;4312663;33;44232;-82
2021/07/19 13:33:53;;;;;;;;;;;21.90;90.60;;;;;;4312797;33;43311;-82
2021/07/19 13:36:32;;;;;;;;;;;21.90;90.60;;;;;;4301655;33;44076;-81
2021/07/19 13:39:02;;;;;;;;;;;21.90;90.50;;;;;;4312446;33;43478;-81
2021/07/19 13:41:38;;;;;;;;;;;21.90;90.60;;;;;;4312630;33;44200;-81
2021/07/19 13:44:14;;;;;;;;;;;22.00;90.50;;;;;;4312314;33;43483;-81
2021/07/19 13:47:04;;;;;;;;;;;22.00;90.50;;;;;;4302061;33;20467;-81
2021/07/19 13:49:39;;;;;;;;;;;22.00;90.50;;;;;;4301031;33;44189;-81
2021/07/19 13:52:12;;;;;;;;;;;22.00;90.60;;;;;;4301096;33;44178;-81
2021/07/19 13:54:50;;;;;;;;;;;22.10;90.50;;;;;;4301357;33;43369;-82
2021/07/19 13:57:17;;;;;;;;;;;22.10;90.50;;;;;;4312095;33;43191;-79
2021/07/19 13:59:44;;;;;;;;;;;22.10;90.50;;;;;;4301499;33;43099;-79
2021/07/19 14:02:16;;;;;;;;;;;22.10;90.40;;;;;;4301129;33;44281;-79
2021/07/19 14:04:43;;;;;;;;;;;22.20;90.40;;;;;;4312363;33;43906;-79
2021/07/19 14:07:13;;;;;;;;;;;22.20;90.50;;;;;;4311871;33;44211;-79
2021/07/19 14:09:40;;;;;;;;;;;22.20;90.40;;;;;;4312195;33;44088;-79
2021/07/19 14:12:10;;;;;;;;;;;22.20;90.40;;;;;;4312329;33;44277;-79
2021/07/19 14:14:37;;;;;;;;;;;22.20;90.30;;;;;;4300809;33;42321;-78
2021/07/19 14:17:04;;;;;;;;;;;22.20;90.70;;;;;;4313063;33;20010;-79
2021/07/19 14:19:34;;;;;;;;;;;22.30;90.30;;;;;;4301205;33;43501;-79
2021/07/19 14:22:04;;;;;;;;;;;22.30;90.30;;;;;;4301276;33;45804;-79
2021/07/19 14:24:34;;;;;;;;;;;22.30;90.10;;;;;;4311668;33;43298;-79
2021/07/19 14:27:04;;;;;;;;;;;22.30;90.20;;;;;;4300906;33;43714;-78
2021/07/19 14:29:39;;;;;;;;;;;22.30;90.20;;;;;;4301234;33;44216;-79
2021/07/19 14:32:14;;;;;;;;;;;22.40;90.10;;;;;;4301024;33;44252;-79
2021/07/19 14:34:50;;;;;;;;;;;22.40;90.10;;;;;;4301163;33;45114;-79
2021/07/19 14:37:23;;;;;;;;;;;22.40;90.00;;;;;;4302726;33;44215;-79
2021/07/19 14:39:56;;;;;;;;;;;22.40;90.10;;;;;;4315057;33;42255;-79
2021/07/19 14:42:31;;;;;;;;;;;22.50;90.10;;;;;;4314437;33;42581;-79
2021/07/19 14:45:00;;;;;;;;;;;22.50;90.00;;;;;;4303787;33;43969;-79
2021/07/19 14:47:30;;;;;;;;;;;22.50;90.00;;;;;;4315353;33;20057;-80
2021/07/19 14:49:57;;;;;;;;;;;22.50;90.00;;;;;;4315101;33;43948;-79